Time;durP1;ratioP1;P1;durP2;ratioP2;P2;SDS_P1;SDS_P2;PMS_P1;PMS_P2;Temp;Humidity;BMP_temperature;BMP_pressure;BME280_temperature;BME280_humidity;BME280_pressure;Samples;Min_cycle;Max_cycle;Signal;HPM_P1;HPM_P2
2022/01/26 00:06:23;;;;;;;36.03;21.02;;;3.60;99.90;;;;;;5029103;28;20048;-54
2022/01/26 00:09:27;;;;;;;38.75;21.52;;;3.80;99.90;;;;;;5029018;28;20049;-55
2022/01/26 00:12:32;;;;;;;41.35;22.63;;;3.90;99.90;;;;;;5029941;28;20408;-56
2022/01/26 00:15:36;;;;;;;38.53;21.85;;;3.90;99.90;;;;;;5029723;28;20047;-58
2022/01/26 00:18:41;;;;;;;42.35;22.88;;;3.90;99.90;;;;;;5029039;28;20044;-56
2022/01/26 00:21:50;;;;;;;39.00;21.58;;;4.00;99.90;;;;;;5029877;28;20056;-58
2022/01/26 00:25:19;;;;;;;68.85;33.92;;;4.10;99.90;;;;;;5029403;28;20060;-56
2022/01/26 00:38:39;;;;;;;32.15;18.48;;;4.70;99.90;;;;;;5029188;28;20044;-56
2022/01/26 00:41:45;;;;;;;36.25;17.92;;;4.60;99.90;;;;;;5028857;28;20052;-58
2022/01/26 00:44:50;;;;;;;38.42;20.35;;;4.60;99.90;;;;;;5029445;28;20044;-58
2022/01/26 00:47:56;;;;;;;29.55;17.05;;;4.60;99.90;;;;;;5029311;28;20420;-58
2022/01/26 00:51:04;;;;;;;27.45;15.90;;;4.50;99.90;;;;;;5029144;28;20531;-58
2022/01/26 00:54:09;;;;;;;32.28;17.58;;;4.50;99.90;;;;;;5029248;28;20403;-58
2022/01/26 00:57:13;;;;;;;32.67;17.13;;;4.40;99.90;;;;;;5029401;28;20033;-56
2022/01/26 01:00:21;;;;;;;29.95;17.40;;;4.30;99.90;;;;;;5028479;28;20052;-58
2022/01/26 01:03:26;;;;;;;24.83;15.30;;;4.30;99.90;;;;;;5029434;28;20052;-54
2022/01/26 01:06:38;;;;;;;33.28;17.77;;;4.10;99.90;;;;;;5027944;28;20044;-59
2022/01/26 01:09:42;;;;;;;32.63;18.02;;;4.00;99.90;;;;;;5027321;28;20102;-57
2022/01/26 01:12:49;;;;;;;31.25;17.67;;;4.10;99.90;;;;;;5028771;28;20048;-54
2022/01/26 01:15:52;;;;;;;28.13;17.23;;;4.10;99.90;;;;;;5029042;28;20036;-57
2022/01/26 01:19:06;;;;;;;36.88;19.95;;;4.10;99.90;;;;;;5028456;28;20057;-58
2022/01/26 01:34:59;;;;;;;44.17;23.00;;;3.50;99.90;;;;;;5029527;28;20036;-57
2022/01/26 01:38:11;;;;;;;36.13;21.23;;;3.40;99.90;;;;;;5032589;28;20048;-57
2022/01/26 01:41:15;;;;;;;35.17;20.85;;;3.20;99.90;;;;;;5032591;28;20518;-56
2022/01/26 01:44:19;;;;;;;35.83;19.88;;;3.40;99.90;;;;;;5032726;28;20044;-58
2022/01/26 01:47:22;;;;;;;35.90;21.80;;;3.50;99.90;;;;;;5032489;28;20060;-59
2022/01/26 01:50:27;;;;;;;37.03;21.23;;;3.60;99.90;;;;;;5031997;28;20041;-58
2022/01/26 01:53:40;;;;;;;34.35;20.27;;;3.60;99.90;;;;;;5032171;28;20511;-56
2022/01/26 01:56:54;;;;;;;34.75;20.08;;;3.70;99.90;;;;;;5032156;28;20048;-58
2022/01/26 01:59:58;;;;;;;34.55;20.00;;;3.80;99.90;;;;;;5031571;28;20045;-56
2022/01/26 02:03:03;;;;;;;40.17;20.48;;;3.90;99.90;;;;;;5032082;28;20408;-57
2022/01/26 02:06:07;;;;;;;36.95;20.42;;;4.00;99.90;;;;;;5031996;28;20060;-58
2022/01/26 02:09:12;;;;;;;35.00;19.48;;;4.10;99.90;;;;;;5031414;28;20056;-57
2022/01/26 02:12:20;;;;;;;39.35;21.70;;;4.00;99.90;;;;;;5031806;28;20041;-58
2022/01/26 02:15:27;;;;;;;33.30;20.73;;;4.10;99.90;;;;;;5031939;28;20040;-57
2022/01/26 03:01:48;;;;;;;38.88;22.67;;;4.90;99.90;;;;;;5031757;28;20518;-58
2022/01/26 03:04:56;;;;;;;38.08;22.48;;;4.60;99.90;;;;;;5031679;28;20131;-58
2022/01/26 03:08:05;;;;;;;35.72;20.42;;;4.00;99.90;;;;;;5031102;28;20167;-56
2022/01/26 03:11:12;;;;;;;37.67;22.73;;;4.00;99.90;;;;;;5030703;28;20044;-54
2022/01/26 03:20:53;;;;;;;39.45;22.48;;;4.10;99.90;;;;;;5030664;28;20053;-55
2022/01/26 03:33:54;;;;;;;43.85;23.65;;;3.50;99.90;;;;;;5030115;28;20049;-58
2022/01/26 03:37:04;;;;;;;37.97;22.10;;;3.40;99.90;;;;;;5029667;28;20040;-58
2022/01/26 03:40:14;;;;;;;47.03;24.92;;;3.20;99.90;;;;;;5029748;28;20045;-56
2022/01/26 03:43:18;;;;;;;42.63;24.33;;;3.30;99.90;;;;;;5030150;28;20045;-58
2022/01/26 03:46:23;;;;;;;43.30;24.52;;;3.20;99.90;;;;;;5030379;28;20057;-59
2022/01/26 03:49:27;;;;;;;40.72;23.20;;;3.20;99.90;;;;;;5029481;28;20040;-58
2022/01/26 03:52:32;;;;;;;40.45;24.88;;;3.20;99.90;;;;;;5030116;28;20044;-58
2022/01/26 03:55:36;;;;;;;50.17;26.30;;;3.30;99.90;;;;;;5030025;28;20424;-57
2022/01/26 03:58:40;;;;;;;47.88;25.60;;;3.30;99.90;;;;;;5029136;28;20400;-57
2022/01/26 04:01:44;;;;;;;50.10;26.02;;;3.30;99.90;;;;;;5029945;28;20060;-57
2022/01/26 04:04:54;;;;;;;41.13;23.83;;;3.40;99.90;;;;;;5029649;28;20396;-58
2022/01/26 04:08:05;;;;;;;43.92;23.77;;;3.40;99.90;;;;;;5030062;28;20404;-58
2022/01/26 04:14:28;;;;;;;41.13;22.88;;;3.50;99.90;;;;;;5029355;28;20602;-56
2022/01/26 04:17:32;;;;;;;42.45;23.17;;;3.60;99.90;;;;;;5030200;28;20057;-56
2022/01/26 04:20:40;;;;;;;44.00;22.92;;;3.70;99.90;;;;;;5030082;28;20112;-58
2022/01/26 04:27:17;;;;;;;37.80;21.77;;;3.70;99.90;;;;;;5030430;28;20068;-59
2022/01/26 04:30:23;;;;;;;37.72;22.10;;;3.90;99.90;;;;;;5028799;28;20053;-57
2022/01/26 04:33:27;;;;;;;35.97;21.60;;;4.00;99.90;;;;;;5029558;28;20511;-58
2022/01/26 04:36:37;;;;;;;36.97;20.90;;;4.20;99.90;;;;;;5028654;28;20036;-58
2022/01/26 04:39:51;;;;;;;38.28;20.65;;;4.30;99.90;;;;;;5028925;28;20125;-57
2022/01/26 04:43:02;;;;;;;37.03;21.83;;;4.40;99.90;;;;;;5029307;28;20048;-57
2022/01/26 04:46:07;;;;;;;38.92;21.95;;;4.50;99.90;;;;;;5029128;28;20041;-58
2022/01/26 04:49:13;;;;;;;34.65;20.73;;;4.40;99.90;;;;;;5028203;28;20060;-58
2022/01/26 04:52:17;;;;;;;34.92;20.73;;;4.40;99.90;;;;;;5029270;28;20049;-58
2022/01/26 04:55:21;;;;;;;35.88;21.05;;;4.40;99.90;;;;;;5028635;28;20116;-57
2022/01/26 04:58:25;;;;;;;34.58;20.00;;;4.40;99.90;;;;;;5028576;28;20519;-58
2022/01/26 05:01:29;;;;;;;32.13;19.17;;;4.40;99.90;;;;;;5029436;28;20056;-59
2022/01/26 05:04:33;;;;;;;33.40;18.95;;;4.30;99.90;;;;;;5028828;28;20052;-55
2022/01/26 05:07:37;;;;;;;35.75;20.38;;;4.30;99.90;;;;;;5029357;28;20070;-59
2022/01/26 05:10:43;;;;;;;34.30;20.50;;;4.30;99.90;;;;;;5030516;28;20045;-59
2022/01/26 05:13:47;;;;;;;33.22;18.13;;;4.40;99.90;;;;;;5032911;28;20040;-59
2022/01/26 05:16:51;;;;;;;29.13;18.23;;;4.50;99.90;;;;;;5032625;28;20048;-58
2022/01/26 05:19:58;;;;;;;32.35;17.35;;;4.70;99.90;;;;;;5032280;28;20067;-58
2022/01/26 05:23:02;;;;;;;33.40;19.08;;;5.00;99.90;;;;;;5032787;28;20064;-59
2022/01/26 05:26:06;;;;;;;30.58;17.00;;;5.20;99.90;;;;;;5032542;28;20040;-58
2022/01/26 05:29:11;;;;;;;35.15;17.85;;;5.50;99.90;;;;;;5032035;28;20053;-59
2022/01/26 05:32:15;;;;;;;27.88;17.20;;;5.80;99.90;;;;;;5032306;28;20045;-56
2022/01/26 05:35:19;;;;;;;29.75;16.10;;;6.20;99.90;;;;;;5032399;28;20049;-58
2022/01/26 05:38:23;;;;;;;28.58;16.95;;;6.40;99.90;;;;;;5032086;28;20045;-58
2022/01/26 05:41:27;;;;;;;27.52;16.40;;;6.60;99.90;;;;;;5032673;28;20048;-57
2022/01/26 05:44:33;;;;;;;36.17;21.70;;;6.80;99.90;;;;;;5032808;28;20041;-56
2022/01/26 05:47:38;;;;;;;39.72;22.42;;;4.90;99.90;;;;;;5032741;28;20053;-59
2022/01/26 05:50:50;;;;;;;39.25;20.77;;;4.60;99.90;;;;;;5032521;28;20416;-59
2022/01/26 05:53:54;;;;;;;34.88;20.77;;;4.50;99.90;;;;;;5032434;28;20048;-57
2022/01/26 05:56:58;;;;;;;38.95;22.83;;;4.70;99.90;;;;;;5032254;28;20511;-58
2022/01/26 06:00:03;;;;;;;40.40;23.38;;;4.00;99.90;;;;;;5031546;28;20064;-58
2022/01/26 06:03:07;;;;;;;40.55;25.33;;;3.90;99.90;;;;;;5032179;28;20546;-58
2022/01/26 06:06:11;;;;;;;41.53;23.83;;;3.30;99.90;;;;;;5031727;28;20067;-58
2022/01/26 06:09:15;;;;;;;51.50;25.38;;;3.30;99.90;;;;;;5031496;28;20064;-58
2022/01/26 06:12:20;;;;;;;42.03;23.75;;;3.60;99.90;;;;;;5031703;28;20053;-58
2022/01/26 06:15:23;;;;;;;37.88;21.58;;;3.60;99.90;;;;;;5030751;28;20049;-59
2022/01/26 06:18:27;;;;;;;43.35;23.70;;;3.80;99.90;;;;;;5030100;28;20053;-58
2022/01/26 06:21:31;;;;;;;41.63;23.00;;;3.80;99.90;;;;;;5031116;28;20415;-59
2022/01/26 06:24:36;;;;;;;37.85;22.13;;;3.70;99.90;;;;;;5031951;28;20060;-56
2022/01/26 06:27:40;;;;;;;39.60;21.48;;;3.80;99.90;;;;;;5031468;28;20403;-55
2022/01/26 06:30:49;;;;;;;40.00;23.77;;;3.90;99.90;;;;;;5031315;28;20412;-56
2022/01/26 06:33:53;;;;;;;36.45;23.52;;;3.80;99.90;;;;;;5031841;28;20044;-58
2022/01/26 06:36:59;;;;;;;50.40;25.80;;;3.80;99.90;;;;;;5030747;28;20044;-59
2022/01/26 06:40:04;;;;;;;38.45;22.20;;;3.60;99.90;;;;;;5031155;28;20056;-55
2022/01/26 06:43:14;;;;;;;44.13;25.02;;;3.50;99.90;;;;;;5031714;28;20049;-58
2022/01/26 06:46:28;;;;;;;40.03;24.70;;;3.50;99.90;;;;;;5031401;28;20048;-57
2022/01/26 06:49:31;;;;;;;42.22;23.23;;;3.50;99.90;;;;;;5030797;28;20053;-58
2022/01/26 06:52:37;;;;;;;42.45;23.98;;;3.50;99.90;;;;;;5031373;28;20407;-57
2022/01/26 06:55:41;;;;;;;40.72;23.48;;;3.50;99.90;;;;;;5024572;28;20049;-58
2022/01/26 06:58:45;;;;;;;41.63;22.45;;;3.40;99.90;;;;;;5017737;28;20052;-59
2022/01/26 07:01:50;;;;;;;39.85;25.02;;;3.30;99.90;;;;;;5010379;28;20053;-56
2022/01/26 07:04:54;;;;;;;45.95;23.10;;;3.10;99.90;;;;;;5011263;28;20056;-57
2022/01/26 07:07:59;;;;;;;39.50;23.15;;;3.00;99.90;;;;;;5017142;28;20087;-59
2022/01/26 07:11:03;;;;;;;43.28;23.70;;;2.90;99.90;;;;;;5012029;28;20060;-58
2022/01/26 07:14:10;;;;;;;41.30;22.48;;;3.10;99.90;;;;;;5012089;28;20045;-56
2022/01/26 07:23:43;;;;;;;38.63;23.35;;;3.50;99.90;;;;;;5022996;28;20120;-54
2022/01/26 07:26:52;;;;;;;39.83;22.60;;;3.60;99.90;;;;;;5021976;28;20071;-53
2022/01/26 07:29:58;;;;;;;38.13;22.40;;;3.60;99.90;;;;;;5018600;28;20139;-57
2022/01/26 07:33:04;;;;;;;37.67;22.15;;;3.70;99.90;;;;;;5011491;28;20049;-55
2022/01/26 07:36:08;;;;;;;35.38;21.30;;;3.80;99.90;;;;;;5012380;28;20052;-60
2022/01/26 07:39:16;;;;;;;38.67;22.60;;;4.00;99.90;;;;;;5013692;28;20048;-53
2022/01/26 07:42:20;;;;;;;39.67;22.38;;;4.10;99.90;;;;;;5016792;28;20041;-56
2022/01/26 07:45:25;;;;;;;38.55;23.17;;;4.30;99.90;;;;;;5013967;28;20033;-55
2022/01/26 07:48:29;;;;;;;37.40;21.95;;;4.40;99.90;;;;;;5019979;28;20073;-56
2022/01/26 07:51:32;;;;;;;39.13;20.48;;;4.50;99.90;;;;;;5013738;28;20048;-58
2022/01/26 07:54:36;;;;;;;35.28;19.35;;;4.40;99.90;;;;;;5025405;28;20052;-54
2022/01/26 07:57:43;;;;;;;33.45;19.15;;;4.50;99.90;;;;;;5019146;28;20404;-54
2022/01/26 08:00:47;;;;;;;31.17;17.25;;;4.60;99.90;;;;;;5010469;28;20048;-58
2022/01/26 08:03:51;;;;;;;31.98;17.35;;;4.70;99.90;;;;;;5013479;28;20052;-59
2022/01/26 08:06:56;;;;;;;33.13;19.17;;;4.90;99.90;;;;;;5027980;28;20056;-56
2022/01/26 08:10:00;;;;;;;34.75;19.13;;;5.00;99.90;;;;;;5016556;28;20049;-58
2022/01/26 08:13:04;;;;;;;33.03;17.55;;;5.00;99.90;;;;;;5021307;28;20519;-55
2022/01/26 08:16:08;;;;;;;28.83;17.05;;;5.10;99.90;;;;;;5016095;28;20056;-56
2022/01/26 08:19:14;;;;;;;27.05;16.63;;;5.30;99.90;;;;;;5007802;28;20192;-57
2022/01/26 08:22:20;;;;;;;31.90;18.38;;;5.50;99.90;;;;;;5016920;28;20052;-58
2022/01/26 08:25:25;;;;;;;37.22;20.85;;;5.60;99.90;;;;;;5020937;28;20052;-54
2022/01/26 08:28:39;;;;;;;42.55;24.38;;;5.70;99.90;;;;;;5008539;28;20431;-54
2022/01/26 08:31:44;;;;;;;47.30;26.73;;;5.70;99.90;;;;;;5025060;28;20068;-58
2022/01/26 08:34:48;;;;;;;63.88;35.55;;;5.50;99.90;;;;;;5029433;28;20041;-57
2022/01/26 08:37:52;;;;;;;51.50;27.08;;;4.90;99.90;;;;;;5027280;28;20053;-58
2022/01/26 08:40:56;;;;;;;45.25;27.48;;;4.70;99.90;;;;;;5014537;28;20122;-55
2022/01/26 08:44:00;;;;;;;38.70;23.25;;;4.90;99.90;;;;;;5029140;28;20048;-55
2022/01/26 08:47:05;;;;;;;41.45;21.38;;;5.10;99.90;;;;;;5024976;28;20056;-57
2022/01/26 08:50:09;;;;;;;34.75;19.95;;;5.30;99.90;;;;;;5019250;28;20512;-58
2022/01/26 08:53:13;;;;;;;35.65;19.98;;;5.60;99.90;;;;;;5022003;28;20048;-59
2022/01/26 08:56:17;;;;;;;31.30;19.15;;;5.80;99.90;;;;;;5020942;28;20048;-54
2022/01/26 08:59:24;;;;;;;32.92;19.23;;;5.90;99.90;;;;;;5020846;28;20045;-56
2022/01/26 09:02:28;;;;;;;32.88;20.17;;;5.90;99.90;;;;;;5010645;28;20138;-54
2022/01/26 09:05:32;;;;;;;38.08;21.40;;;6.10;99.90;;;;;;5009708;28;20040;-55
2022/01/26 09:08:41;;;;;;;36.90;22.98;;;6.00;99.90;;;;;;5018811;28;20659;-57
2022/01/26 09:11:47;;;;;;;46.95;27.38;;;5.40;99.90;;;;;;5009162;28;20041;-57
2022/01/26 09:14:52;;;;;;;62.22;40.33;;;5.50;99.90;;;;;;5026959;28;20040;-57
2022/01/26 09:17:59;;;;;;;65.28;38.70;;;5.60;99.90;;;;;;5022673;28;20040;-54
2022/01/26 09:21:03;;;;;;;53.28;31.95;;;5.80;99.90;;;;;;5013192;28;20052;-55
2022/01/26 09:24:07;;;;;;;53.55;28.98;;;5.80;99.90;;;;;;5009324;28;20041;-57
2022/01/26 09:27:14;;;;;;;42.03;25.92;;;6.10;99.90;;;;;;5009360;28;20056;-56
2022/01/26 09:30:19;;;;;;;55.58;31.98;;;5.80;99.90;;;;;;5009569;28;20512;-57
2022/01/26 09:33:23;;;;;;;57.92;29.95;;;6.20;99.90;;;;;;5010300;28;20049;-58
2022/01/26 09:36:28;;;;;;;42.83;23.90;;;6.40;99.90;;;;;;5009124;28;20444;-59
2022/01/26 09:39:33;;;;;;;46.58;28.77;;;6.60;99.90;;;;;;5011771;28;20049;-58
2022/01/26 09:42:40;;;;;;;49.63;28.83;;;7.00;99.90;;;;;;5025063;28;20413;-58
2022/01/26 09:45:45;;;;;;;48.03;29.42;;;7.20;99.90;;;;;;5020112;28;20052;-58
2022/01/26 09:48:50;;;;;;;37.08;23.20;;;6.90;99.90;;;;;;5020371;28;20428;-57
2022/01/26 09:51:54;;;;;;;35.70;23.85;;;6.90;99.90;;;;;;5026688;28;20551;-59
2022/01/26 09:54:59;;;;;;;42.80;26.73;;;6.90;99.90;;;;;;5020100;28;20121;-58
2022/01/26 09:58:04;;;;;;;49.90;27.92;;;7.10;99.90;;;;;;5019073;28;20516;-55
2022/01/26 10:01:08;;;;;;;41.35;26.10;;;7.40;99.90;;;;;;5018028;28;20053;-57
2022/01/26 10:04:35;;;;;;;37.90;25.00;;;7.80;99.90;;;;;;5030552;28;20056;-56
2022/01/26 10:18:04;;;;;;;40.05;24.65;;;8.30;99.90;;;;;;5019163;28;20065;-59
2022/01/26 10:21:09;;;;;;;40.25;22.88;;;7.50;99.90;;;;;;5025038;28;20522;-54
2022/01/26 10:24:13;;;;;;;47.33;25.30;;;7.90;99.90;;;;;;5016884;28;20053;-59
2022/01/26 10:27:17;;;;;;;37.55;23.65;;;7.70;99.90;;;;;;5028441;28;20052;-58
2022/01/26 10:30:21;;;;;;;38.85;20.77;;;7.90;99.90;;;;;;5029330;28;20048;-53
2022/01/26 10:33:25;;;;;;;32.58;21.15;;;7.50;99.90;;;;;;5029123;28;20380;-58
2022/01/26 10:36:37;;;;;;;32.08;20.15;;;7.00;99.90;;;;;;5020597;28;20053;-57
2022/01/26 10:39:46;;;;;;;37.15;21.42;;;7.40;99.90;;;;;;5028918;28;20488;-59
2022/01/26 10:43:08;;;;;;;34.97;22.85;;;7.60;99.90;;;;;;5029888;28;20048;-56
2022/01/26 10:46:23;;;;;;;34.00;21.30;;;7.40;99.90;;;;;;5031539;28;20507;-59
2022/01/26 10:52:54;;;;;;;37.58;20.15;;;7.90;99.90;;;;;;5022547;28;20056;-58
2022/01/26 10:55:59;;;;;;;36.13;20.77;;;8.10;99.90;;;;;;5018079;28;20048;-58
2022/01/26 10:59:06;;;;;;;41.45;20.08;;;8.30;99.90;;;;;;5021363;28;20503;-59
2022/01/26 11:02:13;;;;;;;39.47;21.25;;;8.60;99.90;;;;;;5020394;28;20049;-55
2022/01/26 11:05:19;;;;;;;37.30;20.33;;;8.60;99.90;;;;;;5015082;28;20051;-57
2022/01/26 11:08:24;;;;;;;30.30;19.02;;;8.80;99.90;;;;;;5016609;28;20044;-58
2022/01/26 11:11:28;;;;;;;34.90;20.58;;;9.00;99.90;;;;;;5018214;28;20427;-55
2022/01/26 11:14:39;;;;;;;41.35;24.88;;;9.20;99.90;;;;;;5017805;28;20044;-59
2022/01/26 11:17:46;;;;;;;36.30;20.40;;;8.90;99.90;;;;;;5014936;28;20044;-56
2022/01/26 11:20:52;;;;;;;32.53;20.85;;;9.00;99.90;;;;;;5029577;28;20117;-57
2022/01/26 11:24:18;;;;;;;32.97;18.65;;;9.30;99.90;;;;;;5020771;28;20036;-56
2022/01/26 11:27:32;;;;;;;42.83;22.88;;;9.70;99.90;;;;;;5051101;22;20045;-54
2022/01/26 11:30:38;;;;;;;37.78;23.63;;;9.60;99.90;;;;;;5021664;28;20053;-57
2022/01/26 11:33:47;;;;;;;35.80;20.58;;;9.80;99.90;;;;;;5019148;28;20415;-56
2022/01/26 11:36:51;;;;;;;37.25;20.42;;;9.90;99.90;;;;;;5029842;28;20037;-56
2022/01/26 11:47:56;;;;;;;34.38;22.02;;;9.50;99.90;;;;;;5037375;28;20056;-55
2022/01/26 11:51:01;;;;;;;35.72;22.30;;;9.50;99.90;;;;;;5030535;28;20064;-56
2022/01/26 11:54:27;;;;;;;35.47;21.85;;;9.70;99.90;;;;;;5047654;28;20042;-58
2022/01/26 11:57:39;;;;;;;27.35;16.83;;;9.90;99.90;;;;;;5048691;28;20048;-55
2022/01/26 12:00:51;;;;;;;24.55;15.65;;;10.20;99.90;;;;;;5047976;28;20447;-57
2022/01/26 12:04:00;;;;;;;21.52;13.30;;;10.40;99.90;;;;;;5030751;28;20056;-54
2022/01/26 12:07:21;;;;;;;23.60;13.75;;;10.70;99.90;;;;;;5048319;28;20052;-56
2022/01/26 12:10:30;;;;;;;18.85;11.73;;;10.90;99.90;;;;;;5048857;28;20079;-56
2022/01/26 12:13:39;;;;;;;17.67;11.00;;;11.10;99.90;;;;;;5049527;28;20043;-55
2022/01/26 12:16:47;;;;;;;29.25;17.05;;;11.40;99.90;;;;;;5043021;28;20503;-54
2022/01/26 12:37:17;;;;;;;30.73;16.65;;;11.60;99.90;;;;;;5048985;28;20044;-56
2022/01/26 12:41:30;;;;;;;31.63;16.83;;;11.70;99.90;;;;;;5044970;28;20059;-57
2022/01/26 12:44:12;;;;;;;33.67;20.33;;;11.60;99.90;;;;;;5049017;28;20048;-56
2022/01/26 12:47:19;;;;;;;24.67;14.73;;;11.60;99.90;;;;;;5047127;28;20403;-54
2022/01/26 12:50:24;;;;;;;15.43;9.63;;;11.50;99.90;;;;;;5040298;28;20044;-57
2022/01/26 12:53:29;;;;;;;23.77;13.55;;;11.40;99.90;;;;;;5038981;28;20048;-55
2022/01/26 12:56:34;;;;;;;20.88;10.80;;;11.40;99.90;;;;;;5044605;28;20035;-57
2022/01/26 12:59:38;;;;;;;16.35;9.68;;;11.30;99.90;;;;;;5045214;28;20036;-52
2022/01/26 13:02:42;;;;;;;19.85;14.10;;;11.30;99.90;;;;;;5044317;28;20519;-55
2022/01/26 13:05:46;;;;;;;14.50;9.48;;;11.40;99.90;;;;;;5041983;28;20400;-58
2022/01/26 13:08:56;;;;;;;18.30;10.70;;;11.50;99.90;;;;;;5045354;28;20411;-56
2022/01/26 13:12:03;;;;;;;21.70;13.43;;;11.60;99.90;;;;;;5046318;28;20043;-57
2022/01/26 13:15:22;;;;;;;25.88;16.10;;;11.60;99.90;;;;;;5045197;28;20163;-56
2022/01/26 13:19:01;;;;;;;33.83;18.92;;;11.80;99.90;;;;;;5043156;28;20036;-56
2022/01/26 13:26:09;;;;;;;15.52;11.30;;;12.10;99.90;;;;;;5048112;28;20056;-57
2022/01/26 13:29:29;;;;;;;16.05;11.15;;;12.30;99.90;;;;;;5042466;28;20059;-55
2022/01/26 13:45:59;;;;;;;15.25;8.80;;;12.20;99.90;;;;;;5052852;28;20407;-56
2022/01/26 13:52:54;;;;;;;14.77;8.02;;;12.10;99.90;;;;;;5050067;28;20036;-57
2022/01/26 13:56:12;;;;;;;15.23;8.63;;;12.00;99.90;;;;;;5051084;28;20044;-56
2022/01/26 13:59:25;;;;;;;10.98;7.15;;;12.00;99.90;;;;;;5051415;28;20407;-57
2022/01/26 14:02:32;;;;;;;14.57;7.90;;;12.00;99.90;;;;;;5050800;28;20506;-57
2022/01/26 14:05:36;;;;;;;20.35;10.93;;;11.90;99.90;;;;;;5052391;28;20048;-55
2022/01/26 14:08:41;;;;;;;24.05;13.18;;;11.80;99.90;;;;;;5048631;28;20040;-56
2022/01/26 14:11:48;;;;;;;25.15;16.80;;;11.70;99.90;;;;;;5051336;28;20068;-53
2022/01/26 14:14:56;;;;;;;13.27;8.10;;;11.60;99.90;;;;;;5040267;28;20039;-56
2022/01/26 14:18:10;;;;;;;13.52;8.20;;;11.60;99.90;;;;;;5044508;28;20044;-56
2022/01/26 14:27:55;;;;;;;12.90;8.27;;;11.40;99.90;;;;;;5042521;28;20043;-51
2022/01/26 15:00:37;;;;;;;17.67;7.97;;;10.90;99.90;;;;;;5047203;28;20455;-56
2022/01/26 15:40:18;;;;;;;14.48;8.25;;;10.40;99.90;;;;;;5048343;28;20039;-53
2022/01/26 16:07:21;;;;;;;17.67;10.48;;;9.90;99.90;;;;;;5047137;28;20052;-53
2022/01/26 17:02:18;;;;;;;17.67;11.63;;;9.30;99.90;;;;;;5048997;28;20407;-56
2022/01/26 17:46:59;;;;;;;26.35;17.75;;;9.30;99.90;;;;;;5033544;28;20048;-70
2022/01/26 18:16:29;;;;;;;32.08;17.50;;;9.20;99.90;;;;;;5032448;28;20036;-70
2022/01/26 18:33:11;;;;;;;61.15;37.08;;;9.10;99.90;;;;;;5032268;28;20052;-70
2022/01/26 18:40:15;;;;;;;56.42;33.70;;;9.10;99.90;;;;;;5032139;28;20064;-68
2022/01/26 18:49:40;;;;;;;65.18;35.50;;;9.00;99.90;;;;;;5031751;28;19916;-70
2022/01/26 18:52:45;;;;;;;60.25;37.72;;;8.90;99.90;;;;;;5031943;28;20041;-70
2022/01/26 18:55:50;;;;;;;64.45;39.10;;;8.90;99.90;;;;;;5031193;28;20392;-70
2022/01/26 18:58:55;;;;;;;77.70;44.50;;;8.90;99.90;;;;;;5031819;28;20052;-70
2022/01/26 19:02:01;;;;;;;92.78;55.35;;;8.80;99.90;;;;;;5031507;28;20041;-69
2022/01/26 19:05:06;;;;;;;90.30;56.80;;;8.80;99.90;;;;;;5031888;28;20048;-70
2022/01/26 19:08:10;;;;;;;71.00;43.40;;;8.80;99.90;;;;;;5031725;28;20399;-70
2022/01/26 19:11:15;;;;;;;62.17;35.67;;;8.80;99.90;;;;;;5031893;28;20507;-70
2022/01/26 19:14:24;;;;;;;49.30;29.05;;;8.80;99.90;;;;;;5031976;28;20534;-69
2022/01/26 19:17:35;;;;;;;39.60;24.15;;;8.70;99.90;;;;;;5032068;28;20380;-70
2022/01/26 19:20:53;;;;;;;38.85;21.13;;;8.70;99.90;;;;;;5032226;28;20048;-69
2022/01/26 19:27:12;;;;;;;53.47;34.45;;;8.70;99.90;;;;;;5031687;28;20072;-70
2022/01/26 19:47:15;;;;;;;38.53;24.35;;;8.60;99.90;;;;;;5031152;28;20040;-70
2022/01/26 19:53:42;;;;;;;75.68;41.50;;;8.60;99.90;;;;;;5030680;28;20041;-69
2022/01/26 19:56:47;;;;;;;38.35;25.60;;;8.60;99.90;;;;;;5030050;28;20396;-70
2022/01/26 19:59:52;;;;;;;43.05;26.67;;;8.60;99.90;;;;;;5030527;28;20046;-69
2022/01/26 20:02:58;;;;;;;46.97;29.42;;;8.60;99.90;;;;;;5031097;28;20052;-70
2022/01/26 20:06:07;;;;;;;42.83;26.45;;;8.60;99.90;;;;;;5030671;28;20068;-70
2022/01/26 20:09:22;;;;;;;35.05;24.83;;;8.60;99.90;;;;;;5031427;28;20056;-70
2022/01/26 20:16:03;;;;;;;52.38;36.03;;;8.60;99.90;;;;;;5024087;28;20048;-70
2022/01/26 20:19:07;;;;;;;42.30;29.98;;;8.60;99.90;;;;;;5030292;28;20044;-70
2022/01/26 20:22:13;;;;;;;41.17;30.20;;;8.60;99.90;;;;;;5029822;28;20060;-69
2022/01/26 20:25:20;;;;;;;33.05;21.23;;;8.60;99.90;;;;;;5041211;28;20045;-70
2022/01/26 20:28:25;;;;;;;27.98;18.27;;;8.60;99.90;;;;;;5030409;28;20049;-70
2022/01/26 20:31:29;;;;;;;28.50;18.73;;;8.60;99.90;;;;;;5030641;28;20072;-70
2022/01/26 20:34:33;;;;;;;54.95;39.05;;;8.60;99.90;;;;;;5030825;28;20047;-70
2022/01/26 20:37:37;;;;;;;30.48;20.10;;;8.60;99.90;;;;;;5031033;28;20064;-70
2022/01/26 20:40:41;;;;;;;27.98;18.73;;;8.60;99.90;;;;;;5030055;28;20543;-69
2022/01/26 20:43:45;;;;;;;27.50;18.25;;;8.60;99.90;;;;;;5040778;28;20413;-69
2022/01/26 20:46:49;;;;;;;24.50;14.18;;;8.60;99.90;;;;;;5031046;28;20048;-70
2022/01/26 20:49:54;;;;;;;19.17;12.13;;;8.50;99.90;;;;;;5040969;28;20056;-69
2022/01/26 20:53:01;;;;;;;23.50;15.20;;;8.50;99.90;;;;;;5030369;28;20089;-69
2022/01/26 20:56:06;;;;;;;30.65;16.10;;;8.50;99.90;;;;;;5030462;28;20048;-70
2022/01/26 20:59:11;;;;;;;28.05;16.55;;;8.50;99.90;;;;;;5030275;28;20044;-69
2022/01/26 21:02:15;;;;;;;30.48;15.85;;;8.60;99.90;;;;;;5030103;28;20396;-70
2022/01/26 21:05:23;;;;;;;23.25;16.77;;;8.60;99.90;;;;;;5030284;28;20060;-70
2022/01/26 21:08:27;;;;;;;42.70;26.50;;;8.60;99.90;;;;;;5029725;28;20060;-69
2022/01/26 21:11:31;;;;;;;36.38;20.65;;;8.60;99.90;;;;;;5030570;28;20355;-70
2022/01/26 21:14:36;;;;;;;21.52;13.02;;;8.60;99.90;;;;;;5029804;28;20396;-70
2022/01/26 21:17:41;;;;;;;37.70;24.42;;;8.60;99.90;;;;;;5030157;28;20048;-70
2022/01/26 21:20:46;;;;;;;69.80;42.67;;;8.60;99.90;;;;;;5030004;28;20045;-70
2022/01/26 21:23:50;;;;;;;22.25;15.23;;;8.60;99.90;;;;;;5029966;28;20052;-70
2022/01/26 21:26:56;;;;;;;48.35;32.08;;;8.50;99.90;;;;;;5029845;28;20048;-70
2022/01/26 21:30:00;;;;;;;37.80;22.17;;;8.50;99.90;;;;;;5029789;28;20507;-70
2022/01/26 21:33:04;;;;;;;35.72;23.02;;;8.60;99.90;;;;;;5030168;28;20052;-70
2022/01/26 21:36:11;;;;;;;64.05;39.13;;;8.60;99.90;;;;;;5030057;28;20041;-68
2022/01/26 21:39:16;;;;;;;54.45;35.85;;;8.60;99.90;;;;;;5029614;28;20214;-68
2022/01/26 21:42:20;;;;;;;93.53;61.75;;;8.60;99.90;;;;;;5029475;28;20076;-68
2022/01/26 21:45:24;;;;;;;71.28;44.90;;;8.60;99.90;;;;;;5029566;28;20060;-68
2022/01/26 21:48:29;;;;;;;82.45;51.03;;;8.60;99.90;;;;;;5029734;28;20048;-68
2022/01/26 21:51:34;;;;;;;45.38;30.90;;;8.60;99.90;;;;;;5029891;28;20052;-69
2022/01/26 21:54:37;;;;;;;19.80;13.93;;;8.60;99.90;;;;;;5033479;28;20052;-68
2022/01/26 21:57:46;;;;;;;27.52;18.35;;;8.50;99.90;;;;;;5033561;28;20057;-68
2022/01/26 22:00:50;;;;;;;20.58;13.93;;;8.50;99.90;;;;;;5044043;28;20087;-68
2022/01/26 22:03:55;;;;;;;26.80;13.75;;;8.50;99.90;;;;;;5033141;28;20056;-69
2022/01/26 22:06:59;;;;;;;25.90;15.57;;;8.40;99.90;;;;;;5033202;28;20056;-68
2022/01/26 22:10:04;;;;;;;34.53;18.30;;;8.40;99.90;;;;;;5032750;28;20052;-69
2022/01/26 22:13:09;;;;;;;29.42;20.65;;;8.40;99.90;;;;;;5032535;28;20041;-68
2022/01/26 22:16:13;;;;;;;27.05;16.58;;;8.40;99.90;;;;;;5034277;28;20044;-69
2022/01/26 22:19:17;;;;;;;18.80;12.65;;;8.40;99.90;;;;;;5032586;28;20048;-68
2022/01/26 22:22:21;;;;;;;24.77;14.80;;;8.40;99.90;;;;;;5032796;28;20056;-69
2022/01/26 22:25:27;;;;;;;42.28;27.83;;;8.50;99.90;;;;;;5032631;28;20044;-68
2022/01/26 22:28:34;;;;;;;31.88;21.27;;;8.50;99.90;;;;;;5032072;28;20044;-68
2022/01/26 22:31:38;;;;;;;15.95;9.55;;;8.50;99.90;;;;;;5032552;28;20060;-69
2022/01/26 22:34:42;;;;;;;18.95;11.65;;;8.50;99.90;;;;;;5032919;28;20058;-68
2022/01/26 22:37:49;;;;;;;18.52;11.23;;;8.60;99.90;;;;;;5032449;28;20056;-68
2022/01/26 22:40:55;;;;;;;20.13;11.02;;;8.60;99.90;;;;;;5032766;28;20495;-69
2022/01/26 22:44:00;;;;;;;16.27;9.48;;;8.60;99.90;;;;;;5031666;28;20048;-69
2022/01/26 22:47:04;;;;;;;12.25;8.73;;;8.60;99.90;;;;;;5032272;28;20048;-69
2022/01/26 22:50:08;;;;;;;16.48;9.93;;;8.50;99.90;;;;;;5032141;28;20052;-69
2022/01/26 22:53:12;;;;;;;26.67;15.15;;;8.40;99.90;;;;;;5032604;28;20045;-69
2022/01/26 22:56:16;;;;;;;20.65;13.93;;;8.10;99.90;;;;;;5032551;28;20052;-69
2022/01/26 22:59:21;;;;;;;27.70;15.80;;;7.80;99.90;;;;;;5033490;28;20503;-68
2022/01/26 23:02:46;;;;;;;35.53;19.83;;;7.70;99.90;;;;;;5032560;28;20036;-68
2022/01/26 23:06:11;;;;;;;81.28;47.85;;;7.50;99.90;;;;;;5032175;28;20040;-68